Time;durP1;ratioP1;P1;durP2;ratioP2;P2;SDS_P1;SDS_P2;PMS_P1;PMS_P2;Temp;Humidity;BMP_temperature;BMP_pressure;BME280_temperature;BME280_humidity;BME280_pressure;Samples;Min_cycle;Max_cycle;Signal;HPM_P1;HPM_P2
2022/01/18 00:00:29;;;;;;;4.83;1.80;;;20.90;46.30;;;;;;5010487;28;90032;-64
2022/01/18 00:02:58;;;;;;;7.83;3.33;;;20.90;46.30;;;;;;5005508;28;88559;-64
2022/01/18 00:05:27;;;;;;;8.23;3.70;;;20.80;46.20;;;;;;5003868;28;88636;-64
2022/01/18 00:07:57;;;;;;;6.40;3.70;;;20.80;46.20;;;;;;5004702;28;93302;-64
2022/01/18 00:10:29;;;;;;;6.93;3.80;;;20.80;46.20;;;;;;5007660;28;89981;-64
2022/01/18 00:13:12;;;;;;;9.03;4.03;;;20.80;46.20;;;;;;5013114;28;88762;-64
2022/01/18 00:15:54;;;;;;;6.07;4.13;;;20.80;46.80;;;;;;5011462;28;88602;-64
2022/01/18 00:18:22;;;;;;;12.10;4.20;;;20.70;46.10;;;;;;5008129;28;89703;-64
2022/01/18 00:21:10;;;;;;;10.40;5.47;;;20.70;46.10;;;;;;5015010;28;90156;-64
2022/01/18 00:23:51;;;;;;;9.97;4.77;;;20.70;46.10;;;;;;5007406;28;89648;-64
2022/01/18 00:26:20;;;;;;;7.13;4.40;;;20.70;46.10;;;;;;5005577;28;88711;-63
2022/01/18 00:28:53;;;;;;;9.77;5.27;;;20.70;46.10;;;;;;5005300;28;91998;-64
2022/01/18 00:34:12;;;;;;;10.23;4.63;;;20.60;46.00;;;;;;5007796;28;88592;-63
2022/01/18 00:36:53;;;;;;;12.33;5.77;;;20.60;46.00;;;;;;5007147;28;88501;-64
2022/01/18 00:39:21;;;;;;;12.03;5.60;;;20.60;46.00;;;;;;5009793;28;89415;-63
2022/01/18 00:41:49;;;;;;;10.97;5.53;;;20.60;46.00;;;;;;5008237;28;89056;-64
2022/01/18 00:44:17;;;;;;;10.87;5.27;;;20.60;46.00;;;;;;5010243;28;88548;-64
2022/01/18 00:46:47;;;;;;;8.50;4.57;;;20.60;46.00;;;;;;5007708;28;88459;-64
2022/01/18 00:49:15;;;;;;;10.73;5.93;;;20.60;45.90;;;;;;5012394;28;89783;-63
2022/01/18 00:51:48;;;;;;;10.50;6.10;;;20.60;45.90;;;;;;5004660;28;88453;-64
2022/01/18 00:54:22;;;;;;;10.53;5.20;;;20.60;45.90;;;;;;5006619;28;88417;-64
2022/01/18 00:56:52;;;;;;;9.33;6.57;;;20.60;45.90;;;;;;5004433;28;88607;-64
2022/01/18 00:59:20;;;;;;;10.80;6.27;;;20.60;45.90;;;;;;5004068;28;93230;-64
2022/01/18 01:01:50;;;;;;;11.97;6.93;;;20.60;45.90;;;;;;5012129;28;91931;-64
2022/01/18 01:04:21;;;;;;;13.90;7.33;;;20.60;45.90;;;;;;5002324;28;88304;-65
2022/01/18 01:06:49;;;;;;;14.70;7.80;;;20.60;45.90;;;;;;5010274;28;89825;-64
2022/01/18 01:09:17;;;;;;;12.60;8.33;;;20.50;46.50;;;;;;5004370;28;90667;-64
2022/01/18 01:11:45;;;;;;;11.63;7.23;;;20.50;45.80;;;;;;5005248;28;89392;-65
2022/01/18 01:14:17;;;;;;;16.37;7.83;;;20.50;45.80;;;;;;5006222;28;88423;-64
2022/01/18 01:16:55;;;;;;;13.60;8.47;;;20.50;45.80;;;;;;5008880;28;88691;-64
2022/01/18 01:19:45;;;;;;;13.80;8.47;;;20.50;45.80;;;;;;5011110;28;90058;-64
2022/01/18 01:41:49;;;;;;;13.93;8.63;;;20.40;45.80;;;;;;5005273;28;90539;-63
2022/01/18 01:44:25;;;;;;;17.33;9.53;;;20.30;45.70;;;;;;5016143;28;89961;-64
2022/01/18 01:46:53;;;;;;;16.20;9.07;;;20.30;45.80;;;;;;5015476;28;88591;-64
2022/01/18 01:49:23;;;;;;;16.30;10.00;;;20.30;45.80;;;;;;5002196;28;88696;-64
2022/01/18 01:51:53;;;;;;;17.13;10.70;;;20.30;45.80;;;;;;5004549;28;90412;-65
2022/01/18 01:54:20;;;;;;;18.30;10.30;;;20.30;45.80;;;;;;5004565;28;90399;-64
2022/01/18 01:56:48;;;;;;;16.07;10.87;;;20.30;45.70;;;;;;5014608;28;88415;-64
2022/01/18 01:59:16;;;;;;;17.60;10.07;;;20.30;45.80;;;;;;5015024;28;88472;-64
2022/01/18 02:01:46;;;;;;;20.07;11.53;;;20.30;45.70;;;;;;5014969;28;89471;-64
2022/01/18 02:04:16;;;;;;;21.27;11.40;;;20.30;45.70;;;;;;5004121;28;88567;-64
2022/01/18 02:06:44;;;;;;;17.17;11.37;;;20.30;45.80;;;;;;5018970;28;88515;-64
2022/01/18 02:09:15;;;;;;;20.13;10.97;;;20.30;45.80;;;;;;5012919;28;88429;-63
2022/01/18 02:11:43;;;;;;;22.33;12.83;;;20.30;45.80;;;;;;5005240;28;90734;-64
2022/01/18 02:14:16;;;;;;;19.70;11.23;;;20.30;45.80;;;;;;5008668;28;89944;-63
2022/01/18 02:22:16;;;;;;;18.50;11.80;;;20.30;45.80;;;;;;4999230;28;90070;-64
2022/01/18 02:24:45;;;;;;;17.27;11.27;;;20.20;45.80;;;;;;5007445;28;88817;-65
2022/01/18 02:27:14;;;;;;;18.17;10.60;;;20.20;45.80;;;;;;5002425;28;88659;-63
2022/01/18 02:29:42;;;;;;;17.07;10.87;;;20.20;45.80;;;;;;5006838;28;88445;-63
2022/01/18 02:32:10;;;;;;;18.87;11.40;;;20.20;45.80;;;;;;5014910;28;90641;-63
2022/01/18 02:34:39;;;;;;;14.00;9.87;;;20.20;45.80;;;;;;5004534;28;88891;-64
2022/01/18 02:37:07;;;;;;;18.57;11.50;;;20.10;45.70;;;;;;5006234;28;88501;-63
2022/01/18 02:39:37;;;;;;;18.73;10.70;;;20.10;45.70;;;;;;5017314;28;88569;-64
2022/01/18 02:42:06;;;;;;;17.23;11.30;;;20.10;45.70;;;;;;5001387;28;90584;-64
2022/01/18 02:44:35;;;;;;;15.50;9.70;;;20.10;45.70;;;;;;5004259;28;89519;-64
2022/01/18 02:47:03;;;;;;;16.53;10.73;;;20.10;45.70;;;;;;5003728;28;88853;-64
2022/01/18 02:49:31;;;;;;;20.33;11.37;;;20.10;45.70;;;;;;5014765;28;88455;-64
2022/01/18 02:51:59;;;;;;;16.67;10.17;;;20.10;45.70;;;;;;5009674;28;90821;-61
2022/01/18 02:54:27;;;;;;;14.90;10.20;;;20.10;45.70;;;;;;5013157;28;90491;-61
2022/01/18 02:57:00;;;;;;;17.17;10.23;;;20.10;45.80;;;;;;5014525;28;88508;-61
2022/01/18 02:59:33;;;;;;;16.67;9.70;;;20.10;45.80;;;;;;5001428;28;88439;-61
2022/01/18 03:04:48;;;;;;;16.23;8.87;;;20.20;45.80;;;;;;5010883;28;90009;-61
2022/01/18 03:07:17;;;;;;;15.47;9.00;;;20.10;45.70;;;;;;4999746;28;88366;-61
2022/01/18 03:09:45;;;;;;;13.60;8.80;;;20.10;45.70;;;;;;5005723;28;88497;-63
2022/01/18 03:12:15;;;;;;;11.17;8.07;;;20.10;45.70;;;;;;5004117;28;89343;-63
2022/01/18 03:14:43;;;;;;;15.47;9.30;;;20.00;45.70;;;;;;5013554;28;89518;-62
2022/01/18 03:17:11;;;;;;;14.70;9.00;;;20.00;45.70;;;;;;5011061;28;88609;-61
2022/01/18 03:19:39;;;;;;;13.33;8.50;;;20.00;45.70;;;;;;5010021;28;88670;-62
2022/01/18 03:22:10;;;;;;;14.00;9.40;;;20.00;45.70;;;;;;5018140;28;90627;-62
2022/01/18 03:24:47;;;;;;;11.87;7.20;;;20.00;45.70;;;;;;5000682;28;90153;-61
2022/01/18 03:30:06;;;;;;;11.87;7.20;;;20.00;45.80;;;;;;5012962;28;89967;-61
2022/01/18 03:32:34;;;;;;;9.43;6.83;;;20.00;45.70;;;;;;5005313;28;92581;-61
2022/01/18 03:35:02;;;;;;;11.17;6.67;;;20.00;45.80;;;;;;5006082;28;92092;-61
2022/01/18 03:37:30;;;;;;;11.47;7.47;;;19.60;45.50;;;;;;5003247;28;88799;-61
2022/01/18 03:39:59;;;;;;;12.40;7.37;;;19.90;45.70;;;;;;5015650;28;88587;-61
2022/01/18 03:42:38;;;;;;;11.20;6.37;;;19.90;45.80;;;;;;5019287;28;90643;-61
2022/01/18 03:45:07;;;;;;;12.13;6.63;;;19.90;45.70;;;;;;5017013;28;90046;-61
2022/01/18 03:47:35;;;;;;;11.07;7.00;;;19.90;45.70;;;;;;5003406;28;88323;-61
2022/01/18 03:50:05;;;;;;;10.23;6.27;;;19.90;45.70;;;;;;5015480;28;88438;-64
2022/01/18 03:52:33;;;;;;;8.60;6.00;;;19.90;45.80;;;;;;5005381;28;89692;-61
2022/01/18 03:55:06;;;;;;;8.53;6.03;;;19.90;45.80;;;;;;5006909;28;90444;-63
2022/01/18 03:57:35;;;;;;;9.60;6.10;;;19.90;45.80;;;;;;5022224;28;88562;-61
2022/01/18 04:00:04;;;;;;;10.20;5.57;;;19.90;45.80;;;;;;5009716;28;88368;-61
2022/01/18 04:02:33;;;;;;;10.00;4.83;;;19.90;45.80;;;;;;5012400;28;90545;-61
2022/01/18 04:05:02;;;;;;;10.80;6.00;;;19.90;45.80;;;;;;5005174;28;93360;-64
2022/01/18 04:07:30;;;;;;;7.07;4.53;;;19.90;45.80;;;;;;5017812;28;89640;-61
2022/01/18 04:09:58;;;;;;;7.33;4.10;;;19.90;45.80;;;;;;5006116;28;88539;-61
2022/01/18 04:12:26;;;;;;;6.93;4.20;;;19.90;45.80;;;;;;5004783;28;93397;-61
2022/01/18 04:14:55;;;;;;;5.20;4.23;;;19.90;45.80;;;;;;5015761;28;89445;-61
2022/01/18 04:17:45;;;;;;;7.30;4.93;;;19.90;45.80;;;;;;5013870;28;88393;-62
2022/01/18 04:25:55;;;;;;;7.37;4.70;;;19.90;45.70;;;;;;5011712;28;89015;-61
2022/01/18 04:28:32;;;;;;;6.50;4.80;;;19.80;45.70;;;;;;5010281;28;88594;-61
2022/01/18 04:31:06;;;;;;;6.80;4.60;;;19.80;45.80;;;;;;5016319;28;88519;-61
2022/01/18 04:33:35;;;;;;;6.37;4.20;;;19.80;45.80;;;;;;4999851;28;90596;-61
2022/01/18 04:36:04;;;;;;;7.47;4.30;;;19.80;45.80;;;;;;5016881;28;90023;-61
2022/01/18 04:38:32;;;;;;;6.37;3.10;;;19.80;45.80;;;;;;5011480;28;88607;-61
2022/01/18 04:41:05;;;;;;;6.77;3.33;;;19.80;45.80;;;;;;5014326;28;88512;-61
2022/01/18 04:43:46;;;;;;;6.30;3.60;;;19.70;45.80;;;;;;5012824;28;91913;-61
2022/01/18 04:49:01;;;;;;;4.70;3.70;;;19.70;45.80;;;;;;5014952;28;88383;-61
2022/01/18 04:51:29;;;;;;;6.40;4.00;;;19.80;45.90;;;;;;5015811;28;88308;-62
2022/01/18 04:53:59;;;;;;;4.13;2.90;;;19.70;45.80;;;;;;5002105;28;90616;-62
2022/01/18 04:57:51;;;;;;;5.47;3.20;;;19.70;45.80;;;;;;5011045;28;89929;-61
2022/01/18 04:59:18;;;;;;;7.57;4.13;;;19.70;45.80;;;;;;5017585;28;88480;-62
2022/01/18 05:01:49;;;;;;;4.43;2.80;;;19.70;45.80;;;;;;5017508;28;88561;-61
2022/01/18 05:04:18;;;;;;;3.93;3.00;;;19.70;45.80;;;;;;5002893;28;90781;-62
2022/01/18 05:06:49;;;;;;;4.87;3.43;;;19.70;45.90;;;;;;5009443;28;90000;-61
2022/01/18 05:09:17;;;;;;;5.43;2.80;;;19.70;46.50;;;;;;5010191;28;88571;-61
2022/01/18 05:11:52;;;;;;;3.40;2.87;;;19.70;45.90;;;;;;5011163;28;88663;-61
2022/01/18 05:14:30;;;;;;;5.30;2.70;;;19.70;45.90;;;;;;5003443;28;90807;-61
2022/01/18 05:17:08;;;;;;;4.30;3.10;;;19.60;45.80;;;;;;5010739;28;89550;-61
2022/01/18 05:19:45;;;;;;;3.63;2.30;;;19.60;45.80;;;;;;5015050;27;88580;-61
2022/01/18 05:25:00;;;;;;;4.57;2.17;;;19.60;45.90;;;;;;5010741;28;90668;-61
2022/01/18 05:27:28;;;;;;;3.57;2.40;;;19.70;45.90;;;;;;5015798;28;89077;-61
2022/01/18 05:29:56;;;;;;;4.17;2.63;;;19.70;45.90;;;;;;5009325;28;88695;-61
2022/01/18 05:32:25;;;;;;;3.60;2.23;;;19.60;45.80;;;;;;5015098;28;90066;-61
2022/01/18 05:34:53;;;;;;;2.93;2.07;;;19.60;45.80;;;;;;5014147;28;90753;-62
2022/01/18 05:37:21;;;;;;;3.00;2.70;;;19.60;45.80;;;;;;5012184;28;89982;-61
2022/01/18 05:39:49;;;;;;;2.67;2.07;;;19.60;45.80;;;;;;5008594;28;88528;-61
2022/01/18 05:42:17;;;;;;;2.63;2.00;;;19.60;45.80;;;;;;5013547;28;88400;-62
2022/01/18 05:44:47;;;;;;;3.47;2.07;;;19.60;45.90;;;;;;5014843;28;90649;-62
2022/01/18 05:47:15;;;;;;;3.37;2.10;;;19.60;45.90;;;;;;5011474;28;90195;-63
2022/01/18 05:49:44;;;;;;;2.53;2.07;;;19.60;45.90;;;;;;5012984;28;88631;-63
2022/01/18 05:52:12;;;;;;;3.13;2.17;;;19.60;45.90;;;;;;5002885;28;88508;-62
2022/01/18 05:54:40;;;;;;;3.10;2.00;;;19.60;45.90;;;;;;4999842;28;89721;-61
2022/01/18 05:57:08;;;;;;;4.20;2.07;;;19.60;45.90;;;;;;5006006;28;89063;-61
2022/01/18 05:59:38;;;;;;;3.27;2.10;;;19.60;46.60;;;;;;5012059;28;88625;-61
2022/01/18 06:02:16;;;;;;;5.17;2.13;;;19.60;45.90;;;;;;5006163;28;89797;-61
2022/01/18 06:07:31;;;;;;;2.57;1.63;;;19.50;45.80;;;;;;5000414;28;90196;-62
2022/01/18 06:10:01;;;;;;;2.30;1.90;;;19.50;45.80;;;;;;5010641;28;88550;-61
2022/01/18 06:12:30;;;;;;;1.80;1.53;;;19.50;45.90;;;;;;5006277;28;88550;-61
2022/01/18 06:14:58;;;;;;;3.40;1.57;;;19.50;45.90;;;;;;5019697;28;90160;-61
2022/01/18 06:17:26;;;;;;;3.23;1.63;;;19.50;46.00;;;;;;5014024;28;90024;-61
2022/01/18 06:19:56;;;;;;;5.00;1.67;;;19.50;46.00;;;;;;5017108;28;88743;-62
2022/01/18 06:22:24;;;;;;;4.63;1.70;;;19.50;46.10;;;;;;5014624;28;88669;-61
2022/01/18 06:24:52;;;;;;;4.33;1.80;;;19.50;46.20;;;;;;5016742;28;90071;-60
2022/01/18 06:27:20;;;;;;;4.83;1.30;;;19.60;46.50;;;;;;5008156;28;89955;-60
2022/01/18 06:29:48;;;;;;;3.83;1.90;;;19.50;46.60;;;;;;5001073;28;88493;-61
2022/01/18 06:32:16;;;;;;;1.97;1.20;;;19.60;46.80;;;;;;5011242;28;88442;-60
2022/01/18 06:34:44;;;;;;;3.13;1.40;;;19.60;46.80;;;;;;5005678;28;90793;-61
2022/01/18 06:37:13;;;;;;;3.10;1.53;;;19.60;46.90;;;;;;5015633;28;93007;-62
2022/01/18 06:39:41;;;;;;;3.00;1.30;;;19.60;46.90;;;;;;5009161;28;88560;-61
2022/01/18 06:42:12;;;;;;;1.87;1.37;;;19.60;47.00;;;;;;5009852;28;89424;-64
2022/01/18 06:44:40;;;;;;;2.10;1.73;;;19.60;47.00;;;;;;5012373;28;90680;-62
2022/01/18 06:47:08;;;;;;;2.67;1.40;;;19.60;47.10;;;;;;5009786;28;90061;-61
2022/01/18 06:49:36;;;;;;;5.33;2.17;;;19.60;47.20;;;;;;5009055;28;88432;-61
2022/01/18 06:52:05;;;;;;;3.53;1.70;;;19.60;47.30;;;;;;5015393;28;88539;-61
2022/01/18 06:54:34;;;;;;;1.53;1.20;;;19.60;47.40;;;;;;5014789;28;90526;-61
2022/01/18 06:57:02;;;;;;;2.87;1.40;;;19.60;47.40;;;;;;5001034;28;90250;-61
2022/01/18 06:59:30;;;;;;;1.37;1.27;;;19.60;47.50;;;;;;5013393;28;88635;-62
2022/01/18 07:01:59;;;;;;;2.27;1.30;;;19.60;47.50;;;;;;5009302;28;88620;-62
2022/01/18 07:04:28;;;;;;;4.77;1.40;;;19.60;47.50;;;;;;5016475;28;90404;-62
2022/01/18 07:06:57;;;;;;;6.67;1.67;;;19.60;47.60;;;;;;5006192;28;88944;-63
2022/01/18 07:09:25;;;;;;;1.80;1.40;;;19.60;47.60;;;;;;5015629;27;88545;-62
2022/01/18 07:11:56;;;;;;;4.30;2.13;;;19.60;47.60;;;;;;5011248;28;88462;-62
2022/01/18 07:14:24;;;;;;;7.87;1.63;;;19.60;47.60;;;;;;5006410;28;90645;-61
2022/01/18 07:16:52;;;;;;;4.37;1.47;;;19.60;47.60;;;;;;5015900;28;90141;-62
2022/01/18 07:19:20;;;;;;;1.53;1.40;;;19.60;47.60;;;;;;5018821;28;88475;-62
2022/01/18 07:21:50;;;;;;;2.53;1.57;;;19.60;47.70;;;;;;5019539;28;88464;-62
2022/01/18 07:24:35;;;;;;;2.83;1.50;;;19.50;47.60;;;;;;5019388;28;90421;-62
2022/01/18 07:27:06;;;;;;;2.23;1.33;;;19.50;47.50;;;;;;5017471;28;89493;-62
2022/01/18 07:29:34;;;;;;;5.20;1.97;;;19.50;47.50;;;;;;5005565;28;88546;-62
2022/01/18 07:32:02;;;;;;;2.37;1.03;;;19.50;47.60;;;;;;5006665;28;88674;-62
2022/01/18 07:34:32;;;;;;;1.43;1.30;;;19.50;47.60;;;;;;5005539;28;89555;-61
2022/01/18 07:37:00;;;;;;;2.63;1.70;;;19.50;47.50;;;;;;5012337;28;90122;-62
2022/01/18 07:39:28;;;;;;;3.00;1.40;;;19.50;47.50;;;;;;5006426;28;88533;-62
2022/01/18 07:41:56;;;;;;;1.93;1.60;;;19.50;47.50;;;;;;5002878;28;88571;-62
2022/01/18 07:44:26;;;;;;;1.43;1.07;;;19.50;47.50;;;;;;5013069;28;91045;-63
2022/01/18 07:46:53;;;;;;;2.00;1.40;;;19.50;47.40;;;;;;5010771;28;88672;-63
2022/01/18 07:49:21;;;;;;;2.70;1.37;;;19.50;47.40;;;;;;5009828;28;88541;-62
2022/01/18 07:51:50;;;;;;;3.60;1.47;;;19.50;47.40;;;;;;5008374;28;88590;-62
2022/01/18 07:54:18;;;;;;;2.33;1.23;;;19.50;47.30;;;;;;5003853;28;89311;-62
2022/01/18 07:56:46;;;;;;;4.30;1.87;;;19.50;47.30;;;;;;5011043;28;90014;-61
2022/01/18 07:59:14;;;;;;;2.97;1.80;;;19.50;47.30;;;;;;5005208;28;88504;-62
2022/01/18 08:01:44;;;;;;;1.73;1.30;;;19.50;47.30;;;;;;5007131;28;88708;-65
2022/01/18 08:04:13;;;;;;;2.27;1.17;;;19.40;47.20;;;;;;5011711;28;90505;-62
2022/01/18 08:06:41;;;;;;;4.40;1.53;;;19.40;47.20;;;;;;5007037;28;90474;-61
2022/01/18 08:09:09;;;;;;;1.60;1.17;;;19.40;47.20;;;;;;5006583;28;88547;-64
2022/01/18 08:11:37;;;;;;;2.30;1.53;;;19.40;47.20;;;;;;5001713;28;88577;-61
2022/01/18 08:14:05;;;;;;;2.40;1.07;;;19.40;47.20;;;;;;5008920;28;90224;-64
2022/01/18 08:16:48;;;;;;;1.97;1.13;;;19.40;47.20;;;;;;5011361;28;91599;-62
2022/01/18 08:19:17;;;;;;;3.33;1.43;;;19.40;47.20;;;;;;5009876;28;88401;-62
2022/01/18 08:21:46;;;;;;;1.80;1.50;;;19.40;47.20;;;;;;5009974;28;88431;-62
2022/01/18 08:24:14;;;;;;;1.90;1.50;;;19.30;47.10;;;;;;5009443;28;90743;-62
2022/01/18 08:26:42;;;;;;;1.27;1.17;;;19.30;47.10;;;;;;5013014;28;90007;-62
2022/01/18 08:29:12;;;;;;;1.40;1.10;;;19.40;47.20;;;;;;5016212;28;88592;-62
2022/01/18 08:31:40;;;;;;;1.33;1.00;;;19.30;47.00;;;;;;5018349;28;88306;-63
2022/01/18 08:34:08;;;;;;;2.00;1.43;;;19.30;47.00;;;;;;5013299;27;90342;-62
2022/01/18 08:36:38;;;;;;;2.53;1.73;;;19.30;47.00;;;;;;5000211;28;90028;-63
2022/01/18 08:39:06;;;;;;;1.50;1.10;;;19.30;47.00;;;;;;5010885;28;88402;-62
2022/01/18 08:41:35;;;;;;;1.87;1.13;;;19.30;47.00;;;;;;5007218;28;88655;-62
2022/01/18 08:44:03;;;;;;;2.17;1.23;;;18.90;46.70;;;;;;5013302;28;93095;-62
2022/01/18 08:46:31;;;;;;;2.13;1.50;;;19.30;47.00;;;;;;5015278;28;88779;-62
2022/01/18 08:48:59;;;;;;;3.77;1.40;;;19.30;47.00;;;;;;5012452;28;88461;-62
2022/01/18 08:51:28;;;;;;;1.93;1.07;;;19.30;46.90;;;;;;5013445;28;89568;-64
2022/01/18 08:53:57;;;;;;;1.23;1.13;;;19.30;46.90;;;;;;5012006;28;89851;-65
2022/01/18 08:56:25;;;;;;;2.47;1.20;;;19.30;46.90;;;;;;5003347;28;90015;-64
2022/01/18 08:59:13;;;;;;;2.10;1.57;;;19.30;46.90;;;;;;5008715;28;88393;-62
2022/01/18 09:01:41;;;;;;;2.73;1.47;;;19.30;46.80;;;;;;5011204;28;88917;-65
2022/01/18 09:04:10;;;;;;;1.43;1.33;;;19.40;46.90;;;;;;5002325;28;90540;-62
2022/01/18 09:06:38;;;;;;;1.93;0.93;;;19.40;46.90;;;;;;5006839;28;90035;-62
2022/01/18 09:09:09;;;;;;;2.03;1.23;;;19.30;46.80;;;;;;5013245;28;90204;-62
2022/01/18 09:11:37;;;;;;;1.40;1.30;;;19.30;46.80;;;;;;5003732;28;89812;-62
2022/01/18 09:14:05;;;;;;;1.90;1.30;;;19.30;46.80;;;;;;5007270;28;89637;-62
2022/01/18 09:16:33;;;;;;;1.00;0.87;;;19.30;46.80;;;;;;5005872;28;88681;-62
2022/01/18 09:19:01;;;;;;;2.83;1.43;;;19.30;46.80;;;;;;5006573;28;88560;-63
2022/01/18 09:21:31;;;;;;;1.50;1.30;;;19.30;46.90;;;;;;5009233;28;88695;-63
2022/01/18 09:23:59;;;;;;;2.87;1.40;;;19.30;46.80;;;;;;5002449;28;91092;-62
2022/01/18 09:26:29;;;;;;;2.60;1.47;;;19.40;46.90;;;;;;5005552;28;89928;-62
2022/01/18 09:28:57;;;;;;;1.73;1.50;;;19.30;46.90;;;;;;5007722;28;88457;-62
2022/01/18 09:31:25;;;;;;;2.17;1.30;;;19.30;46.80;;;;;;5009214;28;88550;-62
2022/01/18 09:33:53;;;;;;;3.70;1.40;;;19.20;46.80;;;;;;5004375;28;93453;-63
2022/01/18 09:36:21;;;;;;;1.27;1.13;;;19.20;46.80;;;;;;5004908;28;88676;-63
2022/01/18 09:38:49;;;;;;;1.20;1.00;;;19.20;46.80;;;;;;5006410;28;89165;-63
2022/01/18 09:41:18;;;;;;;2.43;1.60;;;19.20;46.80;;;;;;5001400;28;88893;-63
2022/01/18 09:43:50;;;;;;;1.50;1.30;;;19.20;46.80;;;;;;5008118;28;90211;-63
2022/01/18 09:46:19;;;;;;;2.60;1.70;;;19.20;46.80;;;;;;5006967;28;88452;-63
2022/01/18 09:48:47;;;;;;;2.07;1.33;;;19.20;46.80;;;;;;5005785;28;88529;-62
2022/01/18 09:51:15;;;;;;;1.60;1.10;;;19.20;46.80;;;;;;5005208;28;88780;-63
2022/01/18 09:53:43;;;;;;;3.80;1.20;;;19.20;46.80;;;;;;5007105;28;91014;-62
2022/01/18 09:56:11;;;;;;;1.37;1.20;;;19.20;46.80;;;;;;5008556;28;90028;-63
2022/01/18 09:58:39;;;;;;;2.20;1.30;;;19.20;46.80;;;;;;5013219;28;88608;-63
2022/01/18 10:01:08;;;;;;;3.33;1.60;;;19.20;46.80;;;;;;5006643;28;88440;-63
2022/01/18 10:03:38;;;;;;;2.17;1.60;;;19.20;46.80;;;;;;5006133;28;92036;-62
2022/01/18 10:06:07;;;;;;;3.43;1.20;;;19.20;46.80;;;;;;5007398;28;89122;-62
2022/01/18 10:08:36;;;;;;;1.53;1.13;;;19.20;46.70;;;;;;5004172;28;88536;-63
2022/01/18 10:11:14;;;;;;;1.50;1.40;;;19.20;46.70;;;;;;5006512;28;88655;-63
2022/01/18 10:13:42;;;;;;;1.60;1.37;;;19.20;46.70;;;;;;5004902;28;93573;-62
2022/01/18 10:16:12;;;;;;;1.33;1.23;;;19.20;46.70;;;;;;5001221;28;92948;-63
2022/01/18 10:18:47;;;;;;;2.50;1.63;;;19.20;46.70;;;;;;5002872;28;89997;-65
2022/01/18 10:21:26;;;;;;;1.40;1.30;;;19.20;46.70;;;;;;5002060;28;88674;-65
2022/01/18 10:24:10;;;;;;;2.63;1.33;;;19.20;46.70;;;;;;5007648;28;91102;-64
2022/01/18 10:26:39;;;;;;;2.20;1.37;;;19.20;46.70;;;;;;5007141;28;90338;-62
2022/01/18 10:29:07;;;;;;;1.67;1.40;;;19.20;46.70;;;;;;5004967;28;88526;-61
2022/01/18 10:31:39;;;;;;;2.70;1.77;;;19.30;46.80;;;;;;5010439;28;88645;-64
2022/01/18 10:34:15;;;;;;;2.33;1.70;;;19.20;46.80;;;;;;5000400;28;89875;-64
2022/01/18 10:37:03;;;;;;;4.10;1.60;;;19.20;46.80;;;;;;5005427;28;90073;-64
2022/01/18 10:39:38;;;;;;;2.37;1.23;;;19.10;46.80;;;;;;5014421;28;88532;-64
2022/01/18 10:42:16;;;;;;;1.70;1.23;;;19.20;46.70;;;;;;5002646;28;88540;-64
2022/01/18 10:44:45;;;;;;;1.87;1.30;;;19.10;46.70;;;;;;5008216;28;89562;-64
2022/01/18 10:47:16;;;;;;;2.33;1.30;;;19.10;46.70;;;;;;5008159;28;90139;-64
2022/01/18 10:49:47;;;;;;;2.43;1.40;;;19.20;46.90;;;;;;5010294;28;88572;-64
2022/01/18 10:52:18;;;;;;;1.20;1.10;;;19.20;46.90;;;;;;5002434;28;88706;-64
2022/01/18 10:54:46;;;;;;;2.87;1.40;;;19.20;46.90;;;;;;4999422;28;90980;-64
2022/01/18 10:57:18;;;;;;;1.73;1.30;;;19.10;46.80;;;;;;5000986;28;92772;-64
2022/01/18 10:59:46;;;;;;;2.00;1.10;;;19.10;46.80;;;;;;5007745;28;88545;-64
2022/01/18 11:02:17;;;;;;;1.80;1.10;;;19.10;46.80;;;;;;5004778;28;88655;-64
2022/01/18 11:04:47;;;;;;;2.70;1.57;;;19.10;46.80;;;;;;5004539;28;89536;-63
2022/01/18 11:07:16;;;;;;;1.47;1.00;;;19.10;46.80;;;;;;5005723;28;90075;-64
2022/01/18 11:09:45;;;;;;;3.23;1.70;;;19.10;46.80;;;;;;5005757;28;88442;-64
2022/01/18 11:12:13;;;;;;;1.57;1.10;;;19.10;46.80;;;;;;5005203;28;89230;-64
2022/01/18 11:14:45;;;;;;;4.23;1.67;;;19.10;46.80;;;;;;5008205;28;91541;-64
2022/01/18 11:17:20;;;;;;;3.40;1.63;;;19.10;46.80;;;;;;5001189;28;89392;-64
2022/01/18 11:19:52;;;;;;;2.20;1.17;;;19.20;46.90;;;;;;5007859;28;88678;-64
2022/01/18 11:22:20;;;;;;;1.93;1.30;;;19.10;46.80;;;;;;5001155;28;88803;-64
2022/01/18 11:24:49;;;;;;;2.10;1.30;;;19.10;46.80;;;;;;4998794;28;90682;-64
2022/01/18 11:27:18;;;;;;;2.13;1.13;;;19.10;46.70;;;;;;5004419;28;92219;-64
2022/01/18 11:29:48;;;;;;;3.47;1.20;;;19.20;46.80;;;;;;5004821;28;88455;-64
2022/01/18 11:32:16;;;;;;;2.33;1.93;;;19.20;46.80;;;;;;5006846;28;90665;-64
2022/01/18 11:34:50;;;;;;;1.53;1.43;;;19.10;46.70;;;;;;5004445;28;90585;-64
2022/01/18 11:37:29;;;;;;;1.40;1.30;;;19.10;46.80;;;;;;5006971;28;92880;-64
2022/01/18 11:40:01;;;;;;;1.47;1.13;;;19.10;46.80;;;;;;4997049;28;89577;-65
2022/01/18 11:42:46;;;;;;;3.77;1.17;;;19.20;46.90;;;;;;5003024;28;88685;-64
2022/01/18 11:45:37;;;;;;;2.07;1.30;;;19.10;46.80;;;;;;5005791;28;93045;-64
2022/01/18 11:48:07;;;;;;;2.33;1.03;;;19.10;46.80;;;;;;5005266;28;90088;-64
2022/01/18 11:50:46;;;;;;;2.40;1.23;;;19.10;46.80;;;;;;5004388;28;88510;-64
2022/01/18 11:53:26;;;;;;;1.53;1.10;;;19.10;46.90;;;;;;5006066;28;88673;-64
2022/01/18 11:55:55;;;;;;;1.80;1.33;;;19.10;46.90;;;;;;5006305;28;89689;-64
2022/01/18 11:58:23;;;;;;;3.67;1.87;;;19.10;46.90;;;;;;5012697;28;90122;-64
2022/01/18 12:00:53;;;;;;;3.67;2.40;;;19.10;46.90;;;;;;5004803;28;88707;-64
2022/01/18 12:03:23;;;;;;;5.20;2.33;;;19.10;46.90;;;;;;5004684;28;88582;-64
2022/01/18 12:05:51;;;;;;;5.37;2.70;;;19.10;46.90;;;;;;5008416;28;89791;-64
2022/01/18 12:08:35;;;;;;;4.27;3.10;;;19.10;46.90;;;;;;5005726;28;90073;-64
2022/01/18 12:11:04;;;;;;;4.20;3.27;;;19.00;46.90;;;;;;5006853;28;89692;-64
2022/01/18 12:13:45;;;;;;;4.90;3.07;;;19.10;46.90;;;;;;5002345;28;88631;-64
2022/01/18 12:16:26;;;;;;;7.40;4.17;;;19.10;46.90;;;;;;5001057;28;89625;-63
2022/01/18 12:19:00;;;;;;;5.43;3.70;;;19.10;46.90;;;;;;5003108;28;89529;-64
2022/01/18 12:21:29;;;;;;;7.37;4.83;;;19.10;47.00;;;;;;5008638;28;90409;-64
2022/01/18 12:23:59;;;;;;;6.73;4.77;;;19.10;46.90;;;;;;5004075;28;88559;-64
2022/01/18 12:26:37;;;;;;;10.37;5.33;;;19.00;46.90;;;;;;5006500;28;90825;-64
2022/01/18 12:32:18;;;;;;;11.13;6.37;;;19.00;46.90;;;;;;5005133;28;88550;-64
2022/01/18 12:34:48;;;;;;;11.67;6.63;;;19.10;46.90;;;;;;5005398;28;90302;-64
2022/01/18 12:37:45;;;;;;;11.53;7.67;;;19.10;46.90;;;;;;5004011;28;90877;-64
2022/01/18 12:40:29;;;;;;;11.97;7.83;;;19.00;46.90;;;;;;5005795;28;92753;-64
2022/01/18 12:45:53;;;;;;;11.53;7.83;;;19.10;47.00;;;;;;5007730;28;88745;-64
2022/01/18 12:48:21;;;;;;;13.17;6.93;;;19.10;46.90;;;;;;5001987;28;90883;-64
2022/01/18 12:50:51;;;;;;;12.63;7.97;;;19.10;47.00;;;;;;5008188;28;89145;-64
2022/01/18 12:53:21;;;;;;;13.33;8.33;;;19.10;47.00;;;;;;5007920;28;88544;-64
2022/01/18 12:55:54;;;;;;;11.63;7.23;;;19.10;47.00;;;;;;5010157;27;88489;-65
2022/01/18 12:58:24;;;;;;;14.40;8.33;;;19.10;47.00;;;;;;5002539;28;90162;-64
2022/01/18 13:00:54;;;;;;;14.27;8.67;;;19.10;47.00;;;;;;5006253;28;89909;-64
2022/01/18 13:03:24;;;;;;;13.07;8.23;;;19.10;47.00;;;;;;5004342;28;88532;-62
2022/01/18 13:05:53;;;;;;;15.43;8.60;;;19.10;47.10;;;;;;5013064;28;88896;-64
2022/01/18 13:08:23;;;;;;;15.37;9.00;;;19.10;47.00;;;;;;5004570;28;89520;-64
2022/01/18 13:10:53;;;;;;;13.40;9.00;;;19.00;47.00;;;;;;5015171;28;90091;-64
2022/01/18 13:13:22;;;;;;;16.53;9.47;;;19.00;47.00;;;;;;5002578;28;88420;-64
2022/01/18 13:16:05;;;;;;;15.33;8.70;;;19.10;47.00;;;;;;5004390;28;88480;-64
2022/01/18 13:24:45;;;;;;;17.90;10.00;;;19.00;47.00;;;;;;5020554;28;88355;-63
2022/01/18 13:27:20;;;;;;;14.43;9.50;;;19.00;47.00;;;;;;5019831;28;88656;-63
2022/01/18 13:29:50;;;;;;;17.30;9.93;;;19.00;47.00;;;;;;5021128;28;91464;-63
2022/01/18 13:32:20;;;;;;;16.93;10.03;;;19.00;47.10;;;;;;5020411;28;90052;-64
2022/01/18 13:34:49;;;;;;;17.03;10.90;;;19.00;47.10;;;;;;5019081;28;88463;-64
2022/01/18 13:37:18;;;;;;;17.57;10.53;;;19.00;47.10;;;;;;5019914;28;88496;-63
2022/01/18 13:39:48;;;;;;;15.43;9.73;;;19.00;47.10;;;;;;5019499;28;90614;-64
2022/01/18 13:42:19;;;;;;;15.57;9.53;;;19.00;47.10;;;;;;5020879;28;89940;-63
2022/01/18 13:45:09;;;;;;;19.87;10.70;;;19.00;47.80;;;;;;5009948;28;88367;-63
2022/01/18 13:47:39;;;;;;;17.07;11.67;;;19.00;47.10;;;;;;5015507;28;88661;-63
2022/01/18 13:50:07;;;;;;;17.27;9.53;;;19.00;47.10;;;;;;5010637;28;89340;-63
2022/01/18 13:52:35;;;;;;;17.23;9.70;;;19.00;47.10;;;;;;5015622;28;88822;-63
2022/01/18 13:55:03;;;;;;;20.20;10.70;;;19.00;47.10;;;;;;5015391;28;88436;-63
2022/01/18 13:57:33;;;;;;;14.57;9.80;;;19.10;47.10;;;;;;5015860;28;88344;-63
2022/01/18 14:00:10;;;;;;;16.20;10.73;;;19.00;47.10;;;;;;5000279;28;88397;-63